Terminal Aerodrome Forecast
Issued by NWS

Home | Current Version | Previous Version | Text Only | Print | Product List | Glossary On
Versions: 1 2 3 4 5 6 7 8 9 10 11 12 13 14
000
FTUS41 KBTV 210200 AAA
TAFMSS
TAF AMD
KMSS 210220Z 2102/2124 VRB03KT P6SM -RA SCT005 OVC060
      TEMPO 2102/2105 2SM -SHRA BR OVC005
     FM210500 12005KT P6SM -SHRA OVC030
     FM210900 12006KT P6SM BKN040=

USA.gov is the U.S. government's official web portal to all federal, state and local government web resources and services.